Time;durP1;ratioP1;P1;durP2;ratioP2;P2;SDS_P1;SDS_P2;PMS_P1;PMS_P2;Temp;Humidity;BMP_temperature;BMP_pressure;BME280_temperature;BME280_humidity;BME280_pressure;Samples;Min_cycle;Max_cycle;Signal;HPM_P1;HPM_P2
2023/02/06 00:01:31;;;;;;;16.90;2.97;;;4.60;99.90;;;;;;5009139;28;20117;-71
2023/02/06 00:03:57;;;;;;;20.02;3.17;;;4.60;99.90;;;;;;5008896;28;20204;-71
2023/02/06 00:06:23;;;;;;;23.90;4.95;;;4.70;99.90;;;;;;5008450;28;20034;-71
2023/02/06 00:08:48;;;;;;;23.15;4.75;;;4.60;99.90;;;;;;5008859;28;20088;-72
2023/02/06 00:11:19;;;;;;;23.63;3.40;;;4.60;99.90;;;;;;5008233;28;20036;-72
2023/02/06 00:13:45;;;;;;;12.70;2.80;;;4.60;99.90;;;;;;5008352;28;20074;-72
2023/02/06 00:16:31;;;;;;;23.80;3.53;;;4.60;99.90;;;;;;5008103;28;20058;-72
2023/02/06 00:18:58;;;;;;;15.68;2.47;;;4.60;99.90;;;;;;5005769;28;20034;-71
2023/02/06 00:21:26;;;;;;;25.20;2.88;;;4.60;99.90;;;;;;5008946;28;20211;-73
2023/02/06 00:23:53;;;;;;;14.88;3.28;;;4.60;99.90;;;;;;5008534;28;20118;-73
2023/02/06 00:26:19;;;;;;;13.00;2.38;;;4.70;99.90;;;;;;5010786;28;20033;-73
2023/02/06 00:28:46;;;;;;;20.50;4.13;;;4.70;99.90;;;;;;5005203;28;20096;-71
2023/02/06 00:31:12;;;;;;;13.60;2.78;;;4.70;99.90;;;;;;5009065;28;20038;-72
2023/02/06 00:33:37;;;;;;;15.98;2.53;;;4.70;99.90;;;;;;5008295;28;20053;-72
2023/02/06 00:36:03;;;;;;;19.40;3.67;;;4.70;99.90;;;;;;5008405;28;20136;-72
2023/02/06 00:38:29;;;;;;;20.27;3.30;;;4.70;99.90;;;;;;5008364;28;20037;-72
2023/02/06 00:40:55;;;;;;;20.80;3.83;;;4.70;99.90;;;;;;5011172;28;20121;-72
2023/02/06 00:43:22;;;;;;;16.40;2.10;;;4.70;99.90;;;;;;5008074;28;20109;-72
2023/02/06 00:45:55;;;;;;;19.50;3.60;;;4.70;99.90;;;;;;5007905;28;20121;-71
2023/02/06 00:48:21;;;;;;;10.88;2.22;;;4.70;99.90;;;;;;5007964;28;20037;-71
2023/02/06 00:50:48;;;;;;;19.95;2.50;;;4.70;99.90;;;;;;5008469;28;20413;-71
2023/02/06 00:53:14;;;;;;;16.70;2.13;;;4.70;99.90;;;;;;5008114;28;20030;-72
2023/02/06 00:55:39;;;;;;;28.20;3.28;;;4.70;99.90;;;;;;5008426;28;20487;-71
2023/02/06 00:58:05;;;;;;;16.42;2.03;;;4.70;99.90;;;;;;5008113;28;20132;-71
2023/02/06 01:00:30;;;;;;;20.63;2.88;;;4.70;99.90;;;;;;5008133;28;20116;-72
2023/02/06 01:02:56;;;;;;;16.95;2.40;;;4.70;99.90;;;;;;5007740;28;20038;-70
2023/02/06 01:05:22;;;;;;;23.35;3.15;;;4.60;99.90;;;;;;5007805;28;20546;-71
2023/02/06 01:07:47;;;;;;;24.27;2.67;;;4.60;99.90;;;;;;5008065;28;20034;-72
2023/02/06 01:10:13;;;;;;;17.20;1.95;;;4.60;99.90;;;;;;5007802;28;20077;-72
2023/02/06 01:12:39;;;;;;;20.20;3.60;;;4.70;99.90;;;;;;5007829;28;20036;-72
2023/02/06 01:15:07;;;;;;;16.27;2.40;;;4.70;99.90;;;;;;5003966;28;20437;-71
2023/02/06 01:17:33;;;;;;;18.27;3.08;;;4.70;99.90;;;;;;5007012;28;20034;-72
2023/02/06 01:19:59;;;;;;;22.50;2.90;;;4.70;99.90;;;;;;5007616;28;20140;-72
2023/02/06 01:22:25;;;;;;;22.73;3.20;;;4.70;99.90;;;;;;5007514;28;20069;-72
2023/02/06 01:24:50;;;;;;;12.02;1.77;;;4.70;99.90;;;;;;5007671;28;20456;-71
2023/02/06 01:27:16;;;;;;;11.07;2.83;;;4.70;99.90;;;;;;5008886;28;20053;-72
2023/02/06 01:29:42;;;;;;;20.33;2.65;;;4.60;99.90;;;;;;5007973;28;20058;-71
2023/02/06 01:32:07;;;;;;;20.23;2.50;;;4.70;99.90;;;;;;5008153;28;20053;-71
2023/02/06 01:34:33;;;;;;;17.52;2.55;;;4.70;99.90;;;;;;5002700;28;20052;-70
2023/02/06 01:36:59;;;;;;;20.60;3.15;;;4.70;99.90;;;;;;5007089;28;20034;-72
2023/02/06 01:39:24;;;;;;;20.73;2.72;;;4.70;99.90;;;;;;5002937;28;20034;-74
2023/02/06 01:41:50;;;;;;;16.15;3.05;;;4.70;99.90;;;;;;5007144;28;20064;-71
2023/02/06 01:44:17;;;;;;;17.27;2.70;;;4.70;99.90;;;;;;5007400;28;20050;-72
2023/02/06 01:46:45;;;;;;;18.25;3.25;;;4.70;99.90;;;;;;5007413;28;20045;-72
2023/02/06 01:49:19;;;;;;;25.85;1.98;;;4.70;99.90;;;;;;5007021;28;20034;-72
2023/02/06 01:51:45;;;;;;;19.73;3.08;;;4.70;99.90;;;;;;5007003;28;20412;-72
2023/02/06 01:54:13;;;;;;;15.27;2.78;;;4.70;99.90;;;;;;5007209;28;20443;-72
2023/02/06 01:56:43;;;;;;;18.90;3.20;;;4.70;99.90;;;;;;5007635;28;20034;-72
2023/02/06 01:59:10;;;;;;;23.48;3.88;;;4.70;99.90;;;;;;5007553;28;20038;-72
2023/02/06 02:01:36;;;;;;;21.50;2.72;;;4.80;99.90;;;;;;5007416;28;20034;-72
2023/02/06 02:04:07;;;;;;;10.85;1.77;;;4.80;99.90;;;;;;5007120;28;20044;-71
2023/02/06 02:06:33;;;;;;;13.98;2.45;;;4.70;99.90;;;;;;5007573;28;20407;-72
2023/02/06 02:09:00;;;;;;;10.93;1.55;;;4.70;99.90;;;;;;5003345;28;20031;-72
2023/02/06 02:11:32;;;;;;;21.88;3.38;;;4.70;99.90;;;;;;5006292;28;20108;-72
2023/02/06 02:13:59;;;;;;;14.95;1.73;;;4.60;99.90;;;;;;4997659;28;20569;-72
2023/02/06 02:16:50;;;;;;;18.67;3.65;;;4.60;99.90;;;;;;5007251;28;20514;-72
2023/02/06 02:19:27;;;;;;;;;;;4.60;99.90;;;;;;5001314;28;20046;-72
2023/02/06 02:22:13;;;;;;;15.55;2.03;;;4.50;99.90;;;;;;5009028;28;19970;-72
2023/02/06 02:24:53;;;;;;;7.97;1.25;;;4.50;99.90;;;;;;5005159;28;20038;-72
2023/02/06 02:27:27;;;;;;;13.85;4.38;;;4.40;99.90;;;;;;5008731;28;20406;-72
2023/02/06 02:30:19;;;;;;;14.27;2.50;;;4.40;99.90;;;;;;5008405;28;20502;-71
2023/02/06 02:32:55;;;;;;;10.15;2.22;;;4.40;99.90;;;;;;5004663;28;20414;-72
2023/02/06 02:35:31;;;;;;;7.57;1.30;;;4.30;99.90;;;;;;5005917;28;20033;-72
2023/02/06 02:38:28;;;;;;;13.60;2.65;;;4.30;99.90;;;;;;5005633;28;20053;-71
2023/02/06 02:41:08;;;;;;;16.33;2.80;;;4.20;99.90;;;;;;5009856;28;20465;-71
2023/02/06 02:43:53;;;;;;;20.90;3.55;;;4.20;99.90;;;;;;5007254;28;20044;-71
2023/02/06 02:46:39;;;;;;;22.73;3.30;;;4.10;99.90;;;;;;5010326;28;20518;-73
2023/02/06 02:49:22;;;;;;;13.93;1.48;;;4.10;99.90;;;;;;5010693;28;20469;-71
2023/02/06 02:51:49;;;;;;;20.92;3.53;;;4.00;99.90;;;;;;5009875;28;20033;-73
2023/02/06 02:54:15;;;;;;;25.92;2.40;;;4.00;99.90;;;;;;5010270;28;20026;-71
2023/02/06 02:56:41;;;;;;;19.55;1.73;;;3.90;99.90;;;;;;5012277;28;20809;-71
2023/02/06 02:59:28;;;;;;;10.48;1.50;;;3.90;99.90;;;;;;5010413;28;20053;-70
2023/02/06 03:01:58;;;;;;;9.98;2.63;;;3.80;99.90;;;;;;5010042;28;20375;-71
2023/02/06 03:04:27;;;;;;;;;;;3.80;99.90;;;;;;5005296;28;20042;-71
2023/02/06 03:07:07;;;;;;;7.05;2.00;;;3.70;99.90;;;;;;5010444;28;20025;-71
2023/02/06 03:09:56;;;;;;;14.10;2.35;;;3.70;99.90;;;;;;5005831;28;20049;-72
2023/02/06 03:12:33;;;;;;;11.07;2.60;;;3.70;99.90;;;;;;5009898;28;20034;-71
2023/02/06 03:15:08;;;;;;;10.75;2.20;;;3.60;99.90;;;;;;5006713;28;20038;-72
2023/02/06 03:17:52;;;;;;;11.38;2.38;;;3.60;99.90;;;;;;5009974;28;20582;-71
2023/02/06 03:20:19;;;;;;;12.70;1.85;;;3.60;99.90;;;;;;5009806;28;20544;-72
2023/02/06 03:22:47;;;;;;;16.95;2.53;;;3.60;99.90;;;;;;5010024;28;20117;-72
2023/02/06 03:25:17;;;;;;;19.63;2.08;;;3.60;99.90;;;;;;5009970;28;20044;-72
2023/02/06 03:27:44;;;;;;;13.40;1.80;;;3.60;99.90;;;;;;5011134;28;20045;-72
2023/02/06 03:30:13;;;;;;;20.75;2.67;;;3.50;99.90;;;;;;5011686;28;20057;-72
2023/02/06 03:32:46;;;;;;;18.35;2.03;;;3.50;99.90;;;;;;5011181;28;20898;-72
2023/02/06 03:35:16;;;;;;;18.08;2.75;;;3.50;99.90;;;;;;5010967;28;20053;-71
2023/02/06 03:37:42;;;;;;;;;;;3.40;99.90;;;;;;5012213;28;20083;-71
2023/02/06 03:40:08;;;;;;;16.35;2.35;;;3.40;99.90;;;;;;5011517;28;20385;-71
2023/02/06 03:42:39;;;;;;;16.42;2.33;;;3.40;99.90;;;;;;5011902;28;20045;-72
2023/02/06 03:45:15;;;;;;;17.17;2.53;;;3.30;99.90;;;;;;5012443;28;20125;-71
2023/02/06 03:47:45;;;;;;;19.88;3.80;;;3.30;99.90;;;;;;5009204;28;20685;-71
2023/02/06 03:50:12;;;;;;;11.35;2.28;;;3.20;99.90;;;;;;5008617;28;20033;-71
2023/02/06 03:52:42;;;;;;;15.88;2.22;;;3.20;99.90;;;;;;5009163;28;20053;-72
2023/02/06 03:55:12;;;;;;;17.30;3.33;;;3.20;99.90;;;;;;5009104;28;20505;-72
2023/02/06 03:57:40;;;;;;;15.00;2.20;;;3.10;99.90;;;;;;5009208;28;20125;-72
2023/02/06 04:00:07;;;;;;;11.05;2.55;;;3.10;99.90;;;;;;5008843;28;20065;-72
2023/02/06 04:02:33;;;;;;;15.25;1.92;;;3.10;99.90;;;;;;5004338;28;20105;-71
2023/02/06 04:04:59;;;;;;;16.70;2.67;;;3.00;99.90;;;;;;5000588;28;20088;-71
2023/02/06 04:07:27;;;;;;;9.85;1.90;;;3.00;99.90;;;;;;5009228;28;20033;-72
2023/02/06 04:09:52;;;;;;;16.33;3.15;;;2.90;99.90;;;;;;5005772;28;20045;-72
2023/02/06 04:12:20;;;;;;;23.40;2.58;;;2.90;99.90;;;;;;5009100;28;20066;-72
2023/02/06 04:14:46;;;;;;;12.98;2.97;;;2.90;99.90;;;;;;5008574;28;20038;-72
2023/02/06 04:17:12;;;;;;;13.88;3.25;;;2.80;99.90;;;;;;5003241;28;20034;-71
2023/02/06 04:19:38;;;;;;;16.70;2.20;;;2.80;99.90;;;;;;5009266;28;20087;-71
2023/02/06 04:22:05;;;;;;;9.57;1.42;;;2.70;99.90;;;;;;5009432;28;20038;-72
2023/02/06 04:24:31;;;;;;;15.90;3.53;;;2.70;99.90;;;;;;5009281;28;20034;-72
2023/02/06 04:26:57;;;;;;;9.02;3.17;;;2.70;99.90;;;;;;5001797;28;20034;-73
2023/02/06 04:29:22;;;;;;;14.02;2.72;;;2.70;99.90;;;;;;5012377;28;20042;-72
2023/02/06 04:31:48;;;;;;;17.27;1.77;;;2.70;99.90;;;;;;5015045;28;20038;-72
2023/02/06 04:34:14;;;;;;;18.63;2.53;;;2.70;99.90;;;;;;5013843;28;20042;-72
2023/02/06 04:36:39;;;;;;;10.45;3.13;;;2.70;99.90;;;;;;5014228;28;20040;-71
2023/02/06 04:39:05;;;;;;;15.10;2.75;;;2.70;99.90;;;;;;5014727;28;20056;-71
2023/02/06 04:41:32;;;;;;;18.35;3.50;;;2.80;99.90;;;;;;5014853;28;20041;-72
2023/02/06 04:43:57;;;;;;;16.85;2.83;;;2.80;99.90;;;;;;5014943;28;20034;-71
2023/02/06 04:46:23;;;;;;;13.15;1.85;;;2.70;99.90;;;;;;5018701;28;20111;-71
2023/02/06 04:48:49;;;;;;;14.73;2.60;;;2.70;99.90;;;;;;5017345;28;20046;-72
2023/02/06 04:51:14;;;;;;;17.15;3.30;;;2.70;99.90;;;;;;5015709;28;20061;-71
2023/02/06 04:53:40;;;;;;;12.10;1.92;;;2.70;99.90;;;;;;5015501;28;20165;-71
2023/02/06 04:56:08;;;;;;;19.08;1.80;;;2.70;99.90;;;;;;5014000;28;20376;-71
2023/02/06 04:58:34;;;;;;;16.20;3.47;;;2.70;99.90;;;;;;5011127;28;20387;-71
2023/02/06 05:01:01;;;;;;;15.25;3.30;;;2.70;99.90;;;;;;5010649;28;20033;-73
2023/02/06 05:03:28;;;;;;;15.75;2.47;;;2.80;99.90;;;;;;5010441;28;20038;-71
2023/02/06 05:05:54;;;;;;;15.75;2.70;;;2.70;99.90;;;;;;5010703;28;20072;-72
2023/02/06 05:08:20;;;;;;;28.90;3.40;;;2.70;99.90;;;;;;5005397;28;20038;-71
2023/02/06 05:10:45;;;;;;;15.18;2.55;;;2.70;99.90;;;;;;5008594;28;20036;-71
2023/02/06 05:13:11;;;;;;;18.98;3.83;;;2.80;99.90;;;;;;5002784;28;20034;-71
2023/02/06 05:15:37;;;;;;;52.05;3.65;;;2.70;99.90;;;;;;5005941;28;20525;-72
2023/02/06 05:18:03;;;;;;;11.07;2.47;;;2.80;99.90;;;;;;5009417;28;20049;-73
2023/02/06 05:20:29;;;;;;;17.15;2.25;;;2.80;99.90;;;;;;5007776;28;20030;-72
2023/02/06 05:22:55;;;;;;;18.63;2.10;;;2.70;99.90;;;;;;5008595;28;20026;-71
2023/02/06 05:25:21;;;;;;;16.02;2.78;;;2.70;99.90;;;;;;5008594;28;20069;-71
2023/02/06 05:27:46;;;;;;;15.88;3.38;;;2.70;99.90;;;;;;5012711;28;20022;-71
2023/02/06 05:30:13;;;;;;;18.80;3.45;;;2.70;99.90;;;;;;5012150;28;20022;-71
2023/02/06 05:32:39;;;;;;;19.30;2.97;;;2.70;99.90;;;;;;5007802;28;20038;-71
2023/02/06 05:35:06;;;;;;;16.77;2.42;;;2.60;99.90;;;;;;5003728;28;20029;-73
2023/02/06 05:37:31;;;;;;;15.23;3.03;;;2.60;99.90;;;;;;5002114;28;20118;-72
2023/02/06 05:39:57;;;;;;;12.45;2.08;;;2.60;99.90;;;;;;5003506;28;20216;-71
2023/02/06 05:42:23;;;;;;;12.98;2.80;;;2.60;99.90;;;;;;5006300;28;20034;-72
2023/02/06 05:44:48;;;;;;;15.02;3.95;;;2.50;99.90;;;;;;5000179;28;20493;-71
2023/02/06 05:47:14;;;;;;;10.15;2.13;;;2.50;99.90;;;;;;5003420;28;20041;-72
2023/02/06 05:49:39;;;;;;;19.48;2.30;;;2.50;99.90;;;;;;5008625;28;20113;-73
2023/02/06 05:52:05;;;;;;;12.10;3.50;;;2.50;99.90;;;;;;4984044;28;20038;-72
2023/02/06 05:54:30;;;;;;;19.23;3.05;;;2.40;99.90;;;;;;5007057;28;20038;-72
2023/02/06 05:56:56;;;;;;;12.35;2.85;;;2.50;99.90;;;;;;5007361;28;20509;-72
2023/02/06 05:59:22;;;;;;;14.07;3.75;;;2.50;99.90;;;;;;5007268;28;20065;-72
2023/02/06 06:01:50;;;;;;;16.92;2.13;;;2.60;99.90;;;;;;5007491;28;20042;-71
2023/02/06 06:04:15;;;;;;;14.27;2.83;;;2.60;99.90;;;;;;5011058;28;20041;-72
2023/02/06 06:06:41;;;;;;;17.70;3.33;;;2.60;99.90;;;;;;5010182;28;20150;-71
2023/02/06 06:09:06;;;;;;;16.35;2.97;;;2.70;99.90;;;;;;5007595;28;20494;-71
2023/02/06 06:11:32;;;;;;;14.48;2.58;;;2.70;99.90;;;;;;5007748;28;20034;-72
2023/02/06 06:13:58;;;;;;;13.95;2.35;;;2.70;99.90;;;;;;5007080;28;20040;-71
2023/02/06 06:16:24;;;;;;;24.63;5.00;;;2.80;99.90;;;;;;5009712;28;20061;-71
2023/02/06 06:18:50;;;;;;;15.15;2.53;;;2.80;99.90;;;;;;5012467;28;20034;-71
2023/02/06 06:21:16;;;;;;;13.45;2.67;;;3.00;99.90;;;;;;5005717;28;20034;-71
2023/02/06 06:23:41;;;;;;;19.42;3.50;;;3.00;99.90;;;;;;5010633;28;20061;-71
2023/02/06 06:26:07;;;;;;;14.48;2.30;;;3.00;99.90;;;;;;5011939;28;20352;-71
2023/02/06 06:28:34;;;;;;;11.43;2.00;;;3.00;99.90;;;;;;5007637;28;20037;-71
2023/02/06 06:31:05;;;;;;;13.65;2.50;;;2.90;99.90;;;;;;5009537;28;20113;-72
2023/02/06 06:33:31;;;;;;;15.70;2.42;;;2.90;99.90;;;;;;5010570;28;20120;-71
2023/02/06 06:35:57;;;;;;;11.55;3.25;;;2.90;99.90;;;;;;5012149;28;20129;-72
2023/02/06 06:38:22;;;;;;;20.27;2.97;;;3.00;99.90;;;;;;5009897;28;20060;-71
2023/02/06 06:40:48;;;;;;;18.98;3.03;;;3.00;99.90;;;;;;5009715;28;20038;-71
2023/02/06 06:43:14;;;;;;;12.95;2.67;;;3.00;99.90;;;;;;5006039;28;20045;-72
2023/02/06 06:45:39;;;;;;;16.58;2.55;;;3.00;99.90;;;;;;5010051;28;20053;-71
2023/02/06 06:48:05;;;;;;;15.45;2.55;;;3.10;99.90;;;;;;5009633;28;20033;-70
2023/02/06 06:50:31;;;;;;;13.85;2.38;;;3.10;99.90;;;;;;5010837;28;20068;-72
2023/02/06 06:52:56;;;;;;;23.08;4.85;;;3.10;99.90;;;;;;5012785;28;20089;-72
2023/02/06 06:55:22;;;;;;;19.25;2.63;;;3.10;99.90;;;;;;5010380;28;20033;-72
2023/02/06 06:57:48;;;;;;;14.25;2.55;;;3.00;99.90;;;;;;5010486;28;20120;-72
2023/02/06 07:00:14;;;;;;;12.95;2.63;;;3.00;99.90;;;;;;5008665;28;20037;-73
2023/02/06 07:02:40;;;;;;;10.50;2.67;;;3.00;99.90;;;;;;5011034;28;20121;-72
2023/02/06 07:05:06;;;;;;;9.23;1.90;;;3.00;99.90;;;;;;5010475;28;20504;-74
2023/02/06 07:07:32;;;;;;;18.38;2.47;;;3.00;99.90;;;;;;5011036;28;20033;-72
2023/02/06 07:09:58;;;;;;;14.68;2.45;;;3.00;99.90;;;;;;5008060;28;20088;-73
2023/02/06 07:12:25;;;;;;;19.15;2.50;;;3.00;99.90;;;;;;5011053;28;20761;-71
2023/02/06 07:14:50;;;;;;;13.63;2.15;;;3.00;99.90;;;;;;5015908;28;20034;-76
2023/02/06 07:17:16;;;;;;;10.00;2.47;;;3.00;99.90;;;;;;5010994;28;20034;-74
2023/02/06 07:19:46;;;;;;;22.10;3.35;;;3.00;99.90;;;;;;5011009;28;20030;-73
2023/02/06 07:22:15;;;;;;;30.88;2.85;;;3.10;99.90;;;;;;5012974;28;20029;-74
2023/02/06 07:24:41;;;;;;;20.67;2.67;;;3.10;99.90;;;;;;5009805;28;20491;-73
2023/02/06 07:27:07;;;;;;;18.88;3.28;;;3.10;99.90;;;;;;5007155;28;20057;-74
2023/02/06 07:29:33;;;;;;;17.50;2.20;;;3.20;99.90;;;;;;5003437;28;20034;-73
2023/02/06 07:31:58;;;;;;;19.00;3.08;;;3.20;99.90;;;;;;5009845;28;20057;-73
2023/02/06 07:34:24;;;;;;;12.32;2.75;;;3.30;99.90;;;;;;5011770;28;20279;-73
2023/02/06 07:36:49;;;;;;;17.58;3.97;;;3.30;99.90;;;;;;5009727;28;20111;-74
2023/02/06 07:39:15;;;;;;;13.43;3.22;;;3.30;99.90;;;;;;5009415;28;20034;-75
2023/02/06 07:41:41;;;;;;;20.15;4.35;;;3.30;99.90;;;;;;5010188;28;20506;-74
2023/02/06 07:44:09;;;;;;;17.98;2.92;;;3.40;99.90;;;;;;5012030;28;20041;-72
2023/02/06 07:46:34;;;;;;;15.52;2.42;;;3.40;99.90;;;;;;5009381;28;20038;-72
2023/02/06 07:49:00;;;;;;;24.02;3.22;;;3.40;99.90;;;;;;5009730;28;20402;-72
2023/02/06 07:51:26;;;;;;;13.98;2.85;;;3.50;99.90;;;;;;5009536;28;20091;-73
2023/02/06 07:53:51;;;;;;;21.08;3.15;;;3.50;99.90;;;;;;5008991;28;20041;-74
2023/02/06 07:56:19;;;;;;;12.18;2.80;;;3.50;99.90;;;;;;5008993;28;20200;-74
2023/02/06 07:58:48;;;;;;;8.82;2.35;;;3.50;99.90;;;;;;5002060;28;20088;-73
2023/02/06 08:01:14;;;;;;;7.73;1.97;;;3.60;99.90;;;;;;4995285;28;20043;-72
2023/02/06 08:03:40;;;;;;;16.27;2.33;;;3.60;99.90;;;;;;5009569;28;20288;-74
2023/02/06 08:06:13;;;;;;;13.23;2.50;;;3.70;99.90;;;;;;5008577;28;20034;-73
2023/02/06 08:08:40;;;;;;;16.98;3.47;;;3.70;99.90;;;;;;5009616;28;20046;-75
2023/02/06 08:11:07;;;;;;;10.57;2.50;;;3.80;99.90;;;;;;5008546;28;20478;-73
2023/02/06 08:13:33;;;;;;;10.85;2.55;;;3.80;99.90;;;;;;5008229;28;20045;-74
2023/02/06 08:16:03;;;;;;;20.38;3.88;;;3.80;99.90;;;;;;5000766;28;20379;-73
2023/02/06 08:18:28;;;;;;;13.65;3.05;;;3.90;99.90;;;;;;5002741;28;20030;-74
2023/02/06 08:21:02;;;;;;;13.40;3.33;;;3.90;99.90;;;;;;5006663;28;20490;-73
2023/02/06 08:23:28;;;;;;;18.20;3.15;;;4.00;99.90;;;;;;5008277;28;20076;-73
2023/02/06 08:26:01;;;;;;;12.27;2.70;;;4.00;99.90;;;;;;5009993;28;20057;-75
2023/02/06 08:28:27;;;;;;;11.90;2.60;;;4.10;99.90;;;;;;5004371;28;20423;-75
2023/02/06 08:30:52;;;;;;;12.20;2.53;;;4.10;99.90;;;;;;5008796;28;20050;-74
2023/02/06 08:33:18;;;;;;;16.17;2.60;;;4.20;99.90;;;;;;5005125;28;20040;-73
2023/02/06 08:35:44;;;;;;;15.18;2.45;;;4.20;99.90;;;;;;5012014;28;20574;-73
2023/02/06 08:38:09;;;;;;;12.48;3.35;;;4.30;99.90;;;;;;5008920;28;20037;-74
2023/02/06 08:40:35;;;;;;;14.02;2.58;;;4.30;99.90;;;;;;5008671;28;20030;-73
2023/02/06 08:43:00;;;;;;;12.70;3.00;;;4.40;99.90;;;;;;5009152;28;20045;-74
2023/02/06 08:45:26;;;;;;;9.70;1.80;;;4.50;99.90;;;;;;5008543;28;20058;-74
2023/02/06 08:47:52;;;;;;;17.63;2.50;;;4.60;99.90;;;;;;5008541;28;20827;-75
2023/02/06 08:50:17;;;;;;;22.33;4.20;;;4.70;99.90;;;;;;5005173;28;20081;-72
2023/02/06 08:52:43;;;;;;;31.77;4.10;;;4.70;99.90;;;;;;5008970;28;20038;-73
2023/02/06 08:55:08;;;;;;;11.80;2.50;;;4.80;99.90;;;;;;5008510;28;20030;-74
2023/02/06 08:57:34;;;;;;;14.55;3.08;;;4.90;99.90;;;;;;5008865;28;20037;-73
2023/02/06 09:00:00;;;;;;;15.18;2.63;;;4.90;99.90;;;;;;5008506;28;20030;-73
2023/02/06 09:02:25;;;;;;;15.40;3.17;;;4.90;99.90;;;;;;5008350;28;20113;-74
2023/02/06 09:04:51;;;;;;;10.07;2.85;;;5.00;99.90;;;;;;5003225;28;20034;-73
2023/02/06 09:07:16;;;;;;;16.20;3.72;;;5.00;99.90;;;;;;5005457;28;20026;-74
2023/02/06 09:09:42;;;;;;;13.85;3.28;;;5.00;99.90;;;;;;5009006;28;20025;-74
2023/02/06 09:12:09;;;;;;;18.13;3.22;;;5.00;99.90;;;;;;5008004;28;20037;-74
2023/02/06 09:14:35;;;;;;;10.77;1.58;;;5.00;99.90;;;;;;5003310;28;20490;-73
2023/02/06 09:17:01;;;;;;;13.98;2.33;;;5.00;99.90;;;;;;5008400;28;20099;-73
2023/02/06 09:19:26;;;;;;;13.40;2.28;;;5.10;99.90;;;;;;5007188;28;20034;-73
2023/02/06 09:21:52;;;;;;;17.17;3.08;;;5.10;99.90;;;;;;5008204;28;20045;-73
2023/02/06 09:24:18;;;;;;;7.10;2.60;;;5.20;99.90;;;;;;5003308;28;20045;-72
2023/02/06 09:26:43;;;;;;;9.88;2.28;;;5.30;99.90;;;;;;5006741;28;20030;-73
2023/02/06 09:29:10;;;;;;;17.25;3.42;;;5.40;99.90;;;;;;5008566;28;20371;-72
2023/02/06 09:31:39;;;;;;;19.55;3.20;;;5.50;99.90;;;;;;5004308;28;20042;-75
2023/02/06 09:34:05;;;;;;;14.85;2.97;;;5.60;99.90;;;;;;5011096;28;20443;-72
2023/02/06 09:36:33;;;;;;;13.35;2.65;;;5.70;99.90;;;;;;5007933;28;20034;-73
2023/02/06 09:38:59;;;;;;;17.60;2.72;;;5.70;99.90;;;;;;5008092;28;20045;-75
2023/02/06 09:41:28;;;;;;;19.92;2.95;;;5.80;99.90;;;;;;5007869;28;20044;-74
2023/02/06 09:44:04;;;;;;;10.80;2.90;;;5.80;99.90;;;;;;5008067;28;20045;-74
2023/02/06 09:46:33;;;;;;;11.13;2.10;;;5.90;99.90;;;;;;5008045;28;20034;-74
2023/02/06 09:49:04;;;;;;;16.90;2.55;;;6.00;99.90;;;;;;5009548;28;20045;-75
2023/02/06 09:51:52;;;;;;;19.27;2.20;;;6.10;99.90;;;;;;5012744;28;20120;-73
2023/02/06 09:54:40;;;;;;;16.73;3.42;;;6.20;99.90;;;;;;5006383;28;20042;-74
2023/02/06 09:57:33;;;;;;;15.25;3.47;;;6.30;99.90;;;;;;5005185;28;20458;-73
2023/02/06 10:00:19;;;;;;;14.48;2.90;;;6.30;99.90;;;;;;5012090;28;20100;-75
2023/02/06 10:03:16;;;;;;;20.67;4.20;;;6.40;99.90;;;;;;5005696;28;20045;-73
2023/02/06 10:06:06;;;;;;;11.07;2.88;;;6.50;99.90;;;;;;5013994;28;20120;-73
2023/02/06 10:09:08;;;;;;;9.13;1.85;;;6.50;99.90;;;;;;5012160;28;20045;-73
2023/02/06 10:11:43;;;;;;;22.70;2.90;;;6.50;99.90;;;;;;5006275;28;20052;-75
2023/02/06 10:14:37;;;;;;;12.65;2.13;;;6.60;99.90;;;;;;5013491;28;20096;-73
2023/02/06 10:17:10;;;;;;;10.93;2.03;;;6.70;99.90;;;;;;5005411;28;20041;-74
2023/02/06 10:20:00;;;;;;;14.45;3.90;;;6.60;99.90;;;;;;4987193;28;20371;-74
2023/02/06 10:22:44;;;;;;;16.05;3.95;;;6.70;99.90;;;;;;4993084;28;20040;-73
2023/02/06 10:25:29;;;;;;;18.00;3.15;;;6.80;99.90;;;;;;5008158;28;20836;-74
2023/02/06 10:28:06;;;;;;;14.27;2.60;;;6.80;99.90;;;;;;5009728;28;20065;-73
2023/02/06 10:31:20;;;;;;;23.52;3.83;;;6.80;99.90;;;;;;5011729;28;20066;-73
2023/02/06 10:34:06;;;;;;;16.40;4.55;;;6.80;99.90;;;;;;5008930;28;20532;-73
2023/02/06 10:37:00;;;;;;;14.70;2.20;;;6.90;99.90;;;;;;5007381;28;20034;-72
2023/02/06 10:39:38;;;;;;;14.63;4.07;;;6.90;99.90;;;;;;5006216;28;20044;-73
2023/02/06 10:42:25;;;;;;;19.10;2.22;;;7.00;99.90;;;;;;4988423;28;20061;-73
2023/02/06 10:45:14;;;;;;;17.10;3.40;;;7.10;99.90;;;;;;4990279;28;20402;-74
2023/02/06 10:48:11;;;;;;;19.85;3.92;;;7.20;99.90;;;;;;4988647;28;20038;-76
2023/02/06 10:51:02;;;;;;;19.65;3.42;;;7.30;99.90;;;;;;4988699;28;20469;-75
2023/02/06 10:53:33;;;;;;;13.30;2.03;;;7.40;99.90;;;;;;4991219;28;20040;-73
2023/02/06 10:56:07;;;;;;;14.02;3.55;;;7.50;99.90;;;;;;4991711;28;20038;-73
2023/02/06 10:58:47;;;;;;;7.22;2.33;;;7.60;99.90;;;;;;4991422;28;20030;-73
2023/02/06 11:01:14;;;;;;;15.35;3.25;;;7.60;99.90;;;;;;4988484;28;20048;-74
2023/02/06 11:03:55;;;;;;;12.93;2.50;;;7.50;99.90;;;;;;4990975;28;20534;-73
2023/02/06 11:06:22;;;;;;;14.32;3.70;;;7.50;99.90;;;;;;4990580;28;20049;-73
2023/02/06 11:08:48;;;;;;;12.50;2.22;;;7.50;99.90;;;;;;4990832;28;20053;-72
2023/02/06 11:11:18;;;;;;;15.82;1.83;;;7.50;99.90;;;;;;4990213;28;20490;-73
2023/02/06 11:13:46;;;;;;;12.27;1.98;;;7.60;99.90;;;;;;4990574;28;20103;-73
2023/02/06 11:16:20;;;;;;;15.50;3.10;;;7.70;99.90;;;;;;4990909;28;20041;-74
2023/02/06 11:18:47;;;;;;;16.83;3.45;;;7.90;99.90;;;;;;4989612;28;20034;-72
2023/02/06 11:21:34;;;;;;;11.80;2.35;;;8.20;99.90;;;;;;4990627;28;20038;-74
2023/02/06 11:24:15;;;;;;;20.88;2.55;;;8.50;99.90;;;;;;4986273;28;20030;-74
2023/02/06 11:26:49;;;;;;;;;;;8.60;99.90;;;;;;4988780;28;20042;-73
2023/02/06 11:29:21;;;;;;;17.05;1.67;;;8.60;99.90;;;;;;4989220;28;20008;-73
2023/02/06 11:31:58;;;;;;;18.48;3.92;;;8.50;99.90;;;;;;4990432;28;20550;-74
2023/02/06 11:34:29;;;;;;;31.02;4.68;;;8.40;99.90;;;;;;4988903;28;20034;-73
2023/02/06 11:36:59;;;;;;;;;;;8.20;99.90;;;;;;4989497;28;20038;-73
2023/02/06 11:39:33;;;;;;;19.05;3.22;;;8.20;99.90;;;;;;4988798;28;20149;-75
2023/02/06 11:42:04;;;;;;;16.10;2.90;;;8.40;99.90;;;;;;4990149;28;20405;-75
2023/02/06 11:44:41;;;;;;;14.00;2.05;;;8.50;99.90;;;;;;4986159;28;20034;-73
2023/02/06 11:47:29;;;;;;;19.60;2.20;;;8.60;99.90;;;;;;4980263;28;20046;-74
2023/02/06 11:49:56;;;;;;;12.52;1.88;;;8.70;99.90;;;;;;4989328;28;20537;-73
2023/02/06 11:52:32;;;;;;;9.18;1.23;;;8.70;99.90;;;;;;4987530;28;20509;-73
2023/02/06 11:55:01;;;;;;;8.80;1.75;;;8.70;99.90;;;;;;4989557;28;20088;-73
2023/02/06 11:57:32;;;;;;;7.65;1.98;;;8.60;99.90;;;;;;4984975;28;20096;-73
2023/02/06 12:00:18;;;;;;;13.43;2.22;;;8.60;99.90;;;;;;4989269;28;20093;-74
2023/02/06 12:02:50;;;;;;;16.05;2.03;;;8.50;99.90;;;;;;4992551;28;20462;-74
2023/02/06 12:05:18;;;;;;;12.38;2.50;;;8.40;99.90;;;;;;4991948;28;20026;-73
2023/02/06 12:08:08;;;;;;;11.57;1.83;;;8.40;99.90;;;;;;4992720;28;20097;-75
2023/02/06 12:10:39;;;;;;;11.77;1.52;;;8.40;99.90;;;;;;4988845;28;20042;-74
2023/02/06 12:13:20;;;;;;;13.80;2.25;;;8.40;99.90;;;;;;4992552;28;20117;-73
2023/02/06 12:15:49;;;;;;;13.75;2.08;;;8.40;99.90;;;;;;4992598;28;20117;-75
2023/02/06 12:18:20;;;;;;;13.50;1.65;;;8.30;99.90;;;;;;4991927;28;20026;-74
2023/02/06 12:20:54;;;;;;;9.38;1.55;;;8.50;99.90;;;;;;4991288;28;20035;-76
2023/02/06 12:23:27;;;;;;;8.05;2.00;;;8.40;99.90;;;;;;4989274;28;20111;-75
2023/02/06 12:25:58;;;;;;;12.45;1.40;;;8.50;99.90;;;;;;4989761;28;20085;-73
2023/02/06 12:28:52;;;;;;;17.33;3.67;;;8.40;99.90;;;;;;4988700;28;20661;-73
2023/02/06 12:31:25;;;;;;;12.20;2.38;;;8.40;99.90;;;;;;4987518;28;20050;-75
2023/02/06 12:33:57;;;;;;;7.03;1.70;;;8.40;99.90;;;;;;4989115;28;20057;-74
2023/02/06 12:36:31;;;;;;;9.77;2.00;;;8.50;99.90;;;;;;4989512;28;20045;-73
2023/02/06 12:39:18;;;;;;;9.95;1.65;;;8.60;99.90;;;;;;4987980;28;20041;-75
2023/02/06 12:42:11;;;;;;;13.70;2.45;;;8.70;99.90;;;;;;4987881;28;20033;-74
2023/02/06 12:45:05;;;;;;;20.48;2.13;;;8.70;99.90;;;;;;4985859;28;20041;-73
2023/02/06 12:47:52;;;;;;;5.85;0.90;;;8.60;99.90;;;;;;4985128;28;20065;-74
2023/02/06 12:50:24;;;;;;;17.38;1.48;;;8.50;99.90;;;;;;4988435;28;20034;-73
2023/02/06 12:52:55;;;;;;;6.40;1.48;;;8.30;99.90;;;;;;4988446;28;20035;-75
2023/02/06 12:55:21;;;;;;;8.10;1.20;;;8.20;99.90;;;;;;4988678;28;20389;-74
2023/02/06 12:57:47;;;;;;;11.40;1.50;;;8.20;99.90;;;;;;4980072;28;20045;-73
2023/02/06 13:00:28;;;;;;;13.95;1.20;;;8.10;99.90;;;;;;4984533;28;20031;-73
2023/02/06 13:03:10;;;;;;;13.35;1.95;;;8.10;99.90;;;;;;4984058;28;20066;-73
2023/02/06 13:05:39;;;;;;;13.48;1.50;;;8.10;99.90;;;;;;4988308;28;20420;-74